Weather at Utley Field

Public forecast

Using degrees Fahrenheit for public forecast. Weather courtesy of forecast.io.

Closest aviation weather report (METAR) to Utley Field

Closest report is Austin Bergstrom International Airport, 12.9 nm (23.8 km) W.

2023/02/03 12:53 (retrieved 25 minutes ago)

KAUS 031253Z 32005KT 9SM CLR 02/00 A3051 RMK AO2 SLP341 T00170000

Closest aviation forecast (TAF) to Utley Field

Closest forecast is Austin Bergstrom International Airport, 12.9 nm (23.8 km) W.

2023/02/03 12:45 (retrieved 33 minutes ago)

TAF KAUS 031142Z 0312/0418 33007KT P6SM SKC FM031400 35008KT P6SM BKN020 FM032200 01007KT P6SM SCT025 FM040100 02005KT P6SM SKC FM040900 VRB04KT P6SM BKN015